sensor_id;sensor_type;location;lat;lon;timestamp;P1;durP1;ratioP1;P2;durP2;ratioP2
54849;SDS011;47660;51.334;12.396;2023-04-08T00:00:32;3.40;;;2.03;;
54849;SDS011;47660;51.334;12.396;2023-04-08T00:02:58;3.03;;;2.10;;
54849;SDS011;47660;51.334;12.396;2023-04-08T00:05:25;3.88;;;1.88;;
54849;SDS011;47660;51.334;12.396;2023-04-08T00:07:51;2.03;;;1.50;;
54849;SDS011;47660;51.334;12.396;2023-04-08T00:10:16;3.72;;;1.60;;
54849;SDS011;47660;51.334;12.396;2023-04-08T00:12:42;4.10;;;1.85;;
54849;SDS011;47660;51.334;12.396;2023-04-08T00:15:07;3.88;;;1.73;;
54849;SDS011;47660;51.334;12.396;2023-04-08T00:17:33;4.90;;;1.98;;
54849;SDS011;47660;51.334;12.396;2023-04-08T00:19:58;2.50;;;1.58;;
54849;SDS011;47660;51.334;12.396;2023-04-08T00:22:24;2.53;;;1.63;;
54849;SDS011;47660;51.334;12.396;2023-04-08T00:24:49;3.05;;;1.90;;
54849;SDS011;47660;51.334;12.396;2023-04-08T00:27:17;2.88;;;1.90;;
54849;SDS011;47660;51.334;12.396;2023-04-08T00:29:43;4.03;;;1.83;;
54849;SDS011;47660;51.334;12.396;2023-04-08T00:32:08;4.55;;;2.00;;
54849;SDS011;47660;51.334;12.396;2023-04-08T00:34:36;3.70;;;1.85;;
54849;SDS011;47660;51.334;12.396;2023-04-08T00:37:04;4.07;;;2.10;;
54849;SDS011;47660;51.334;12.396;2023-04-08T00:39:29;2.28;;;1.63;;
54849;SDS011;47660;51.334;12.396;2023-04-08T00:41:55;4.40;;;1.77;;
54849;SDS011;47660;51.334;12.396;2023-04-08T00:44:21;2.58;;;1.73;;
54849;SDS011;47660;51.334;12.396;2023-04-08T00:46:47;4.32;;;1.70;;
54849;SDS011;47660;51.334;12.396;2023-04-08T00:49:12;3.20;;;1.58;;
54849;SDS011;47660;51.334;12.396;2023-04-08T00:51:41;2.75;;;1.50;;
54849;SDS011;47660;51.334;12.396;2023-04-08T00:54:06;1.92;;;1.45;;
54849;SDS011;47660;51.334;12.396;2023-04-08T00:56:32;3.30;;;1.85;;
54849;SDS011;47660;51.334;12.396;2023-04-08T00:58:59;2.40;;;1.73;;
54849;SDS011;47660;51.334;12.396;2023-04-08T01:01:33;3.10;;;1.90;;
54849;SDS011;47660;51.334;12.396;2023-04-08T01:04:12;5.03;;;2.13;;
54849;SDS011;47660;51.334;12.396;2023-04-08T01:09:29;3.50;;;1.50;;
54849;SDS011;47660;51.334;12.396;2023-04-08T01:11:57;2.75;;;1.65;;
54849;SDS011;47660;51.334;12.396;2023-04-08T01:14:27;2.75;;;1.77;;
54849;SDS011;47660;51.334;12.396;2023-04-08T01:16:55;3.38;;;1.83;;
54849;SDS011;47660;51.334;12.396;2023-04-08T01:19:28;3.03;;;1.40;;
54849;SDS011;47660;51.334;12.396;2023-04-08T01:25:05;2.67;;;1.90;;
54849;SDS011;47660;51.334;12.396;2023-04-08T01:27:38;2.47;;;1.55;;
54849;SDS011;47660;51.334;12.396;2023-04-08T01:30:05;3.83;;;1.75;;
54849;SDS011;47660;51.334;12.396;2023-04-08T01:32:32;4.75;;;2.25;;
54849;SDS011;47660;51.334;12.396;2023-04-08T01:34:59;4.07;;;1.70;;
54849;SDS011;47660;51.334;12.396;2023-04-08T01:37:25;2.92;;;1.73;;
54849;SDS011;47660;51.334;12.396;2023-04-08T01:39:55;3.00;;;1.63;;
54849;SDS011;47660;51.334;12.396;2023-04-08T01:42:25;2.83;;;1.80;;
54849;SDS011;47660;51.334;12.396;2023-04-08T01:44:53;3.55;;;1.98;;
54849;SDS011;47660;51.334;12.396;2023-04-08T01:47:21;3.50;;;1.88;;
54849;SDS011;47660;51.334;12.396;2023-04-08T01:49:48;4.22;;;2.20;;
54849;SDS011;47660;51.334;12.396;2023-04-08T01:52:15;4.38;;;2.15;;
54849;SDS011;47660;51.334;12.396;2023-04-08T01:54:44;2.67;;;1.65;;
54849;SDS011;47660;51.334;12.396;2023-04-08T01:57:22;2.15;;;1.23;;
54849;SDS011;47660;51.334;12.396;2023-04-08T01:59:49;2.03;;;1.30;;
54849;SDS011;47660;51.334;12.396;2023-04-08T02:02:19;1.90;;;1.20;;
54849;SDS011;47660;51.334;12.396;2023-04-08T02:04:46;2.80;;;1.50;;
54849;SDS011;47660;51.334;12.396;2023-04-08T02:07:12;2.47;;;1.70;;
54849;SDS011;47660;51.334;12.396;2023-04-08T02:09:38;7.50;;;1.80;;
54849;SDS011;47660;51.334;12.396;2023-04-08T02:12:04;2.70;;;2.03;;
54849;SDS011;47660;51.334;12.396;2023-04-08T02:14:29;4.00;;;1.80;;
54849;SDS011;47660;51.334;12.396;2023-04-08T02:16:58;3.53;;;1.60;;
54849;SDS011;47660;51.334;12.396;2023-04-08T02:19:45;3.85;;;1.50;;
54849;SDS011;47660;51.334;12.396;2023-04-08T02:22:18;3.67;;;1.77;;
54849;SDS011;47660;51.334;12.396;2023-04-08T02:24:53;4.47;;;1.80;;
54849;SDS011;47660;51.334;12.396;2023-04-08T02:27:20;2.97;;;1.45;;
54849;SDS011;47660;51.334;12.396;2023-04-08T02:29:48;3.92;;;2.33;;
54849;SDS011;47660;51.334;12.396;2023-04-08T02:32:18;4.13;;;1.95;;
54849;SDS011;47660;51.334;12.396;2023-04-08T02:34:45;4.38;;;2.30;;
54849;SDS011;47660;51.334;12.396;2023-04-08T02:37:12;2.72;;;1.52;;
54849;SDS011;47660;51.334;12.396;2023-04-08T02:39:41;5.65;;;2.08;;
54849;SDS011;47660;51.334;12.396;2023-04-08T02:42:06;2.78;;;1.63;;
54849;SDS011;47660;51.334;12.396;2023-04-08T02:44:34;5.07;;;2.03;;
54849;SDS011;47660;51.334;12.396;2023-04-08T02:46:59;4.60;;;1.75;;
54849;SDS011;47660;51.334;12.396;2023-04-08T02:49:25;3.85;;;2.40;;
54849;SDS011;47660;51.334;12.396;2023-04-08T02:51:50;5.80;;;1.92;;
54849;SDS011;47660;51.334;12.396;2023-04-08T02:54:16;2.72;;;1.75;;
54849;SDS011;47660;51.334;12.396;2023-04-08T02:56:41;4.00;;;2.17;;
54849;SDS011;47660;51.334;12.396;2023-04-08T02:59:06;5.75;;;1.88;;
54849;SDS011;47660;51.334;12.396;2023-04-08T03:01:32;5.05;;;2.15;;
54849;SDS011;47660;51.334;12.396;2023-04-08T03:03:57;2.97;;;1.50;;
54849;SDS011;47660;51.334;12.396;2023-04-08T03:06:25;6.43;;;2.25;;
54849;SDS011;47660;51.334;12.396;2023-04-08T03:08:50;4.28;;;2.20;;
54849;SDS011;47660;51.334;12.396;2023-04-08T03:11:16;4.60;;;2.35;;
54849;SDS011;47660;51.334;12.396;2023-04-08T03:13:43;2.15;;;1.52;;
54849;SDS011;47660;51.334;12.396;2023-04-08T03:16:10;6.18;;;2.25;;
54849;SDS011;47660;51.334;12.396;2023-04-08T03:18:36;3.80;;;2.00;;
54849;SDS011;47660;51.334;12.396;2023-04-08T03:21:02;3.67;;;2.22;;
54849;SDS011;47660;51.334;12.396;2023-04-08T03:23:27;5.45;;;2.47;;
54849;SDS011;47660;51.334;12.396;2023-04-08T03:25:55;3.53;;;2.13;;
54849;SDS011;47660;51.334;12.396;2023-04-08T03:28:21;4.65;;;2.05;;
54849;SDS011;47660;51.334;12.396;2023-04-08T03:30:51;3.17;;;2.08;;
54849;SDS011;47660;51.334;12.396;2023-04-08T03:33:16;4.65;;;2.40;;
54849;SDS011;47660;51.334;12.396;2023-04-08T03:35:44;3.28;;;1.92;;
54849;SDS011;47660;51.334;12.396;2023-04-08T03:38:12;6.65;;;3.03;;
54849;SDS011;47660;51.334;12.396;2023-04-08T03:40:37;6.05;;;2.33;;
54849;SDS011;47660;51.334;12.396;2023-04-08T03:43:03;5.35;;;1.92;;
54849;SDS011;47660;51.334;12.396;2023-04-08T03:45:30;4.03;;;2.00;;
54849;SDS011;47660;51.334;12.396;2023-04-08T03:47:56;4.28;;;2.55;;
54849;SDS011;47660;51.334;12.396;2023-04-08T03:50:21;4.47;;;2.22;;
54849;SDS011;47660;51.334;12.396;2023-04-08T03:52:47;7.72;;;2.50;;
54849;SDS011;47660;51.334;12.396;2023-04-08T03:55:12;4.68;;;2.35;;
54849;SDS011;47660;51.334;12.396;2023-04-08T03:57:38;4.95;;;2.22;;
54849;SDS011;47660;51.334;12.396;2023-04-08T04:00:03;6.00;;;2.30;;
54849;SDS011;47660;51.334;12.396;2023-04-08T04:02:31;4.70;;;1.83;;
54849;SDS011;47660;51.334;12.396;2023-04-08T04:04:59;3.85;;;1.92;;
54849;SDS011;47660;51.334;12.396;2023-04-08T04:07:25;6.55;;;2.47;;
54849;SDS011;47660;51.334;12.396;2023-04-08T04:09:50;5.15;;;2.33;;
54849;SDS011;47660;51.334;12.396;2023-04-08T04:12:18;4.40;;;2.50;;
54849;SDS011;47660;51.334;12.396;2023-04-08T04:14:43;4.60;;;2.08;;
54849;SDS011;47660;51.334;12.396;2023-04-08T04:17:09;4.10;;;2.03;;
54849;SDS011;47660;51.334;12.396;2023-04-08T04:19:34;4.07;;;2.42;;
54849;SDS011;47660;51.334;12.396;2023-04-08T04:22:00;4.15;;;2.22;;
54849;SDS011;47660;51.334;12.396;2023-04-08T04:24:25;4.57;;;2.55;;
54849;SDS011;47660;51.334;12.396;2023-04-08T04:26:50;4.25;;;2.35;;
54849;SDS011;47660;51.334;12.396;2023-04-08T04:29:16;4.22;;;1.67;;
54849;SDS011;47660;51.334;12.396;2023-04-08T04:31:43;4.05;;;2.53;;
54849;SDS011;47660;51.334;12.396;2023-04-08T04:34:10;5.80;;;2.67;;
54849;SDS011;47660;51.334;12.396;2023-04-08T04:36:35;7.20;;;2.67;;
54849;SDS011;47660;51.334;12.396;2023-04-08T04:39:01;3.25;;;2.08;;
54849;SDS011;47660;51.334;12.396;2023-04-08T04:41:26;8.00;;;2.60;;
54849;SDS011;47660;51.334;12.396;2023-04-08T04:43:52;3.42;;;2.17;;
54849;SDS011;47660;51.334;12.396;2023-04-08T04:46:17;4.00;;;1.92;;
54849;SDS011;47660;51.334;12.396;2023-04-08T04:48:43;6.72;;;2.95;;
54849;SDS011;47660;51.334;12.396;2023-04-08T04:51:08;6.70;;;2.45;;
54849;SDS011;47660;51.334;12.396;2023-04-08T04:53:34;4.22;;;2.08;;
54849;SDS011;47660;51.334;12.396;2023-04-08T04:56:02;2.53;;;1.70;;
54849;SDS011;47660;51.334;12.396;2023-04-08T04:58:30;5.68;;;2.25;;
54849;SDS011;47660;51.334;12.396;2023-04-08T05:00:56;5.80;;;2.15;;
54849;SDS011;47660;51.334;12.396;2023-04-08T05:03:24;4.90;;;2.47;;
54849;SDS011;47660;51.334;12.396;2023-04-08T05:05:53;3.67;;;1.95;;
54849;SDS011;47660;51.334;12.396;2023-04-08T05:08:19;2.17;;;1.77;;
54849;SDS011;47660;51.334;12.396;2023-04-08T05:10:45;3.60;;;1.58;;
54849;SDS011;47660;51.334;12.396;2023-04-08T05:13:10;4.07;;;1.58;;
54849;SDS011;47660;51.334;12.396;2023-04-08T05:15:36;2.78;;;1.70;;
54849;SDS011;47660;51.334;12.396;2023-04-08T05:18:02;3.10;;;1.73;;
54849;SDS011;47660;51.334;12.396;2023-04-08T05:20:30;3.38;;;1.42;;
54849;SDS011;47660;51.334;12.396;2023-04-08T05:22:56;5.55;;;1.70;;
54849;SDS011;47660;51.334;12.396;2023-04-08T05:25:24;5.07;;;2.20;;
54849;SDS011;47660;51.334;12.396;2023-04-08T05:27:52;3.72;;;1.80;;
54849;SDS011;47660;51.334;12.396;2023-04-08T05:30:20;4.15;;;2.03;;
54849;SDS011;47660;51.334;12.396;2023-04-08T05:32:46;4.97;;;2.30;;
54849;SDS011;47660;51.334;12.396;2023-04-08T05:35:15;3.35;;;1.58;;
54849;SDS011;47660;51.334;12.396;2023-04-08T05:37:40;4.03;;;1.95;;
54849;SDS011;47660;51.334;12.396;2023-04-08T05:40:11;5.13;;;2.53;;
54849;SDS011;47660;51.334;12.396;2023-04-08T05:42:37;7.32;;;2.13;;
54849;SDS011;47660;51.334;12.396;2023-04-08T05:45:02;4.35;;;2.05;;
54849;SDS011;47660;51.334;12.396;2023-04-08T05:47:29;5.32;;;2.38;;
54849;SDS011;47660;51.334;12.396;2023-04-08T05:49:54;4.18;;;1.65;;
54849;SDS011;47660;51.334;12.396;2023-04-08T05:52:20;3.78;;;1.58;;
54849;SDS011;47660;51.334;12.396;2023-04-08T05:54:45;3.63;;;1.88;;
54849;SDS011;47660;51.334;12.396;2023-04-08T05:57:11;4.50;;;1.67;;
54849;SDS011;47660;51.334;12.396;2023-04-08T05:59:40;4.47;;;1.92;;
54849;SDS011;47660;51.334;12.396;2023-04-08T06:02:06;2.88;;;1.85;;
54849;SDS011;47660;51.334;12.396;2023-04-08T06:04:32;3.78;;;1.92;;
54849;SDS011;47660;51.334;12.396;2023-04-08T06:06:57;4.50;;;1.70;;
54849;SDS011;47660;51.334;12.396;2023-04-08T06:09:27;3.72;;;1.90;;
54849;SDS011;47660;51.334;12.396;2023-04-08T06:11:52;2.75;;;1.58;;
54849;SDS011;47660;51.334;12.396;2023-04-08T06:14:17;3.00;;;1.73;;
54849;SDS011;47660;51.334;12.396;2023-04-08T06:16:44;3.67;;;1.65;;
54849;SDS011;47660;51.334;12.396;2023-04-08T06:19:10;5.68;;;1.95;;
54849;SDS011;47660;51.334;12.396;2023-04-08T06:21:36;3.25;;;1.58;;
54849;SDS011;47660;51.334;12.396;2023-04-08T06:24:03;4.07;;;2.05;;
54849;SDS011;47660;51.334;12.396;2023-04-08T06:26:29;4.47;;;2.40;;
54849;SDS011;47660;51.334;12.396;2023-04-08T06:28:54;4.68;;;2.35;;
54849;SDS011;47660;51.334;12.396;2023-04-08T06:31:20;9.07;;;3.03;;
54849;SDS011;47660;51.334;12.396;2023-04-08T06:33:45;6.95;;;2.78;;
54849;SDS011;47660;51.334;12.396;2023-04-08T06:36:11;6.75;;;2.72;;
54849;SDS011;47660;51.334;12.396;2023-04-08T06:38:37;7.05;;;3.10;;
54849;SDS011;47660;51.334;12.396;2023-04-08T06:41:03;6.22;;;2.08;;
54849;SDS011;47660;51.334;12.396;2023-04-08T06:43:29;5.50;;;3.17;;
54849;SDS011;47660;51.334;12.396;2023-04-08T06:45:55;8.10;;;2.85;;
54849;SDS011;47660;51.334;12.396;2023-04-08T06:48:23;6.82;;;2.72;;
54849;SDS011;47660;51.334;12.396;2023-04-08T06:50:57;8.63;;;2.88;;
54849;SDS011;47660;51.334;12.396;2023-04-08T06:53:24;6.57;;;3.17;;
54849;SDS011;47660;51.334;12.396;2023-04-08T06:55:51;8.05;;;3.30;;
54849;SDS011;47660;51.334;12.396;2023-04-08T06:58:16;10.77;;;2.97;;
54849;SDS011;47660;51.334;12.396;2023-04-08T07:00:42;7.10;;;2.75;;
54849;SDS011;47660;51.334;12.396;2023-04-08T07:03:07;7.15;;;3.30;;
54849;SDS011;47660;51.334;12.396;2023-04-08T07:05:35;6.78;;;3.47;;
54849;SDS011;47660;51.334;12.396;2023-04-08T07:08:01;7.75;;;3.83;;
54849;SDS011;47660;51.334;12.396;2023-04-08T07:10:29;10.25;;;4.10;;
54849;SDS011;47660;51.334;12.396;2023-04-08T07:12:55;11.05;;;4.32;;
54849;SDS011;47660;51.334;12.396;2023-04-08T07:15:20;8.27;;;4.00;;
54849;SDS011;47660;51.334;12.396;2023-04-08T07:17:46;6.97;;;3.22;;
54849;SDS011;47660;51.334;12.396;2023-04-08T07:20:11;10.60;;;3.75;;
54849;SDS011;47660;51.334;12.396;2023-04-08T07:22:40;8.40;;;4.32;;
54849;SDS011;47660;51.334;12.396;2023-04-08T07:25:05;8.35;;;3.58;;
54849;SDS011;47660;51.334;12.396;2023-04-08T07:27:34;14.65;;;4.78;;
54849;SDS011;47660;51.334;12.396;2023-04-08T07:30:00;9.32;;;3.75;;
54849;SDS011;47660;51.334;12.396;2023-04-08T07:32:25;8.77;;;3.95;;
54849;SDS011;47660;51.334;12.396;2023-04-08T07:34:51;8.95;;;3.80;;
54849;SDS011;47660;51.334;12.396;2023-04-08T07:37:17;12.15;;;3.97;;
54849;SDS011;47660;51.334;12.396;2023-04-08T07:39:44;14.43;;;5.88;;
54849;SDS011;47660;51.334;12.396;2023-04-08T07:42:10;10.23;;;4.07;;
54849;SDS011;47660;51.334;12.396;2023-04-08T07:44:38;14.15;;;5.35;;
54849;SDS011;47660;51.334;12.396;2023-04-08T07:47:06;12.25;;;5.55;;
54849;SDS011;47660;51.334;12.396;2023-04-08T07:49:33;14.50;;;4.80;;
54849;SDS011;47660;51.334;12.396;2023-04-08T07:51:59;16.88;;;5.75;;
54849;SDS011;47660;51.334;12.396;2023-04-08T07:54:26;13.05;;;5.18;;
54849;SDS011;47660;51.334;12.396;2023-04-08T07:56:52;12.43;;;4.72;;
54849;SDS011;47660;51.334;12.396;2023-04-08T07:59:17;11.23;;;4.88;;
54849;SDS011;47660;51.334;12.396;2023-04-08T08:01:43;14.20;;;5.38;;
54849;SDS011;47660;51.334;12.396;2023-04-08T08:04:08;11.45;;;4.80;;
54849;SDS011;47660;51.334;12.396;2023-04-08T08:06:34;15.40;;;5.35;;
54849;SDS011;47660;51.334;12.396;2023-04-08T08:09:00;14.50;;;5.63;;
54849;SDS011;47660;51.334;12.396;2023-04-08T08:11:26;13.13;;;5.82;;
54849;SDS011;47660;51.334;12.396;2023-04-08T08:13:52;16.63;;;5.45;;
54849;SDS011;47660;51.334;12.396;2023-04-08T08:16:18;13.27;;;5.00;;
54849;SDS011;47660;51.334;12.396;2023-04-08T08:18:43;12.07;;;5.68;;
54849;SDS011;47660;51.334;12.396;2023-04-08T08:21:09;13.98;;;5.65;;
54849;SDS011;47660;51.334;12.396;2023-04-08T08:23:34;11.98;;;5.15;;
54849;SDS011;47660;51.334;12.396;2023-04-08T08:26:02;18.42;;;5.63;;
54849;SDS011;47660;51.334;12.396;2023-04-08T08:28:33;14.30;;;6.15;;
54849;SDS011;47660;51.334;12.396;2023-04-08T08:30:59;15.57;;;5.93;;
54849;SDS011;47660;51.334;12.396;2023-04-08T08:33:24;16.83;;;5.75;;
54849;SDS011;47660;51.334;12.396;2023-04-08T08:35:50;17.65;;;6.95;;
54849;SDS011;47660;51.334;12.396;2023-04-08T08:38:16;13.80;;;6.55;;
54849;SDS011;47660;51.334;12.396;2023-04-08T08:40:42;16.20;;;6.68;;
54849;SDS011;47660;51.334;12.396;2023-04-08T08:43:09;16.42;;;6.53;;
54849;SDS011;47660;51.334;12.396;2023-04-08T08:45:38;19.23;;;6.68;;
54849;SDS011;47660;51.334;12.396;2023-04-08T08:48:05;18.48;;;7.10;;
54849;SDS011;47660;51.334;12.396;2023-04-08T08:50:31;13.07;;;6.03;;
54849;SDS011;47660;51.334;12.396;2023-04-08T08:52:57;15.77;;;7.15;;
54849;SDS011;47660;51.334;12.396;2023-04-08T08:55:22;16.73;;;6.80;;
54849;SDS011;47660;51.334;12.396;2023-04-08T08:57:50;15.40;;;6.93;;
54849;SDS011;47660;51.334;12.396;2023-04-08T09:00:19;20.80;;;6.68;;
54849;SDS011;47660;51.334;12.396;2023-04-08T09:02:55;19.63;;;6.60;;
54849;SDS011;47660;51.334;12.396;2023-04-08T09:05:21;16.08;;;6.95;;
54849;SDS011;47660;51.334;12.396;2023-04-08T09:07:46;15.43;;;6.00;;
54849;SDS011;47660;51.334;12.396;2023-04-08T09:10:14;22.85;;;7.28;;
54849;SDS011;47660;51.334;12.396;2023-04-08T09:12:53;18.38;;;7.07;;
54849;SDS011;47660;51.334;12.396;2023-04-08T09:15:23;16.08;;;6.97;;
54849;SDS011;47660;51.334;12.396;2023-04-08T09:17:48;16.50;;;6.75;;
54849;SDS011;47660;51.334;12.396;2023-04-08T09:20:16;17.23;;;7.38;;
54849;SDS011;47660;51.334;12.396;2023-04-08T09:25:27;17.30;;;6.80;;
54849;SDS011;47660;51.334;12.396;2023-04-08T09:27:53;17.58;;;7.60;;
54849;SDS011;47660;51.334;12.396;2023-04-08T09:30:20;18.08;;;7.13;;
54849;SDS011;47660;51.334;12.396;2023-04-08T09:32:51;16.23;;;6.95;;
54849;SDS011;47660;51.334;12.396;2023-04-08T09:35:18;16.83;;;7.10;;
54849;SDS011;47660;51.334;12.396;2023-04-08T09:37:44;15.88;;;6.78;;
54849;SDS011;47660;51.334;12.396;2023-04-08T09:40:13;17.45;;;6.95;;
54849;SDS011;47660;51.334;12.396;2023-04-08T09:42:43;18.10;;;6.40;;
54849;SDS011;47660;51.334;12.396;2023-04-08T09:45:16;18.15;;;7.25;;
54849;SDS011;47660;51.334;12.396;2023-04-08T09:47:55;16.20;;;7.28;;
54849;SDS011;47660;51.334;12.396;2023-04-08T09:50:30;19.43;;;7.80;;
54849;SDS011;47660;51.334;12.396;2023-04-08T09:53:01;19.73;;;7.78;;
54849;SDS011;47660;51.334;12.396;2023-04-08T09:55:34;19.30;;;7.28;;
54849;SDS011;47660;51.334;12.396;2023-04-08T09:58:14;18.50;;;6.93;;
54849;SDS011;47660;51.334;12.396;2023-04-08T10:00:46;21.17;;;7.47;;
54849;SDS011;47660;51.334;12.396;2023-04-08T10:05:53;16.20;;;6.65;;
54849;SDS011;47660;51.334;12.396;2023-04-08T10:08:23;17.88;;;7.47;;
54849;SDS011;47660;51.334;12.396;2023-04-08T10:10:51;17.50;;;7.78;;
54849;SDS011;47660;51.334;12.396;2023-04-08T10:13:18;17.63;;;7.50;;
54849;SDS011;47660;51.334;12.396;2023-04-08T10:15:44;22.48;;;8.13;;
54849;SDS011;47660;51.334;12.396;2023-04-08T10:23:04;14.90;;;7.28;;
54849;SDS011;47660;51.334;12.396;2023-04-08T10:25:35;22.00;;;7.90;;
54849;SDS011;47660;51.334;12.396;2023-04-08T10:33:19;18.60;;;8.00;;
54849;SDS011;47660;51.334;12.396;2023-04-08T10:38:20;19.65;;;7.90;;
54849;SDS011;47660;51.334;12.396;2023-04-08T10:40:46;16.98;;;7.45;;
54849;SDS011;47660;51.334;12.396;2023-04-08T10:43:13;26.02;;;8.88;;
54849;SDS011;47660;51.334;12.396;2023-04-08T10:45:40;17.15;;;7.25;;
54849;SDS011;47660;51.334;12.396;2023-04-08T10:50:42;21.50;;;7.72;;
54849;SDS011;47660;51.334;12.396;2023-04-08T10:53:08;19.15;;;8.18;;
54849;SDS011;47660;51.334;12.396;2023-04-08T10:55:34;16.08;;;7.63;;
54849;SDS011;47660;51.334;12.396;2023-04-08T10:58:06;22.95;;;7.90;;
54849;SDS011;47660;51.334;12.396;2023-04-08T11:00:37;19.73;;;8.10;;
54849;SDS011;47660;51.334;12.396;2023-04-08T11:03:04;22.30;;;7.32;;
54849;SDS011;47660;51.334;12.396;2023-04-08T11:05:32;16.17;;;7.35;;
54849;SDS011;47660;51.334;12.396;2023-04-08T11:07:58;19.73;;;8.55;;
54849;SDS011;47660;51.334;12.396;2023-04-08T11:10:24;21.75;;;8.73;;
54849;SDS011;47660;51.334;12.396;2023-04-08T11:12:50;23.00;;;8.43;;
54849;SDS011;47660;51.334;12.396;2023-04-08T11:15:21;18.25;;;7.78;;
54849;SDS011;47660;51.334;12.396;2023-04-08T11:17:47;18.83;;;8.00;;
54849;SDS011;47660;51.334;12.396;2023-04-08T11:20:15;13.75;;;6.90;;
54849;SDS011;47660;51.334;12.396;2023-04-08T11:22:44;19.27;;;6.97;;
54849;SDS011;47660;51.334;12.396;2023-04-08T11:25:10;22.52;;;7.95;;
54849;SDS011;47660;51.334;12.396;2023-04-08T11:27:36;17.85;;;7.53;;
54849;SDS011;47660;51.334;12.396;2023-04-08T11:30:02;21.52;;;7.13;;
54849;SDS011;47660;51.334;12.396;2023-04-08T11:32:34;15.82;;;7.00;;
54849;SDS011;47660;51.334;12.396;2023-04-08T11:35:01;19.17;;;7.35;;
54849;SDS011;47660;51.334;12.396;2023-04-08T11:37:39;15.95;;;6.97;;
54849;SDS011;47660;51.334;12.396;2023-04-08T11:42:34;14.70;;;6.85;;
54849;SDS011;47660;51.334;12.396;2023-04-08T11:45:01;13.85;;;6.15;;
54849;SDS011;47660;51.334;12.396;2023-04-08T11:47:36;15.27;;;6.75;;
54849;SDS011;47660;51.334;12.396;2023-04-08T11:50:02;14.23;;;6.15;;
54849;SDS011;47660;51.334;12.396;2023-04-08T11:52:42;15.90;;;6.22;;
54849;SDS011;47660;51.334;12.396;2023-04-08T11:55:12;15.90;;;6.35;;
54849;SDS011;47660;51.334;12.396;2023-04-08T11:57:50;12.63;;;5.97;;
54849;SDS011;47660;51.334;12.396;2023-04-08T12:00:19;14.27;;;5.90;;
54849;SDS011;47660;51.334;12.396;2023-04-08T12:02:46;16.35;;;6.30;;
54849;SDS011;47660;51.334;12.396;2023-04-08T12:05:15;14.80;;;6.20;;
54849;SDS011;47660;51.334;12.396;2023-04-08T12:07:41;16.67;;;6.65;;
54849;SDS011;47660;51.334;12.396;2023-04-08T12:10:08;18.00;;;6.43;;
54849;SDS011;47660;51.334;12.396;2023-04-08T12:12:34;14.30;;;5.68;;
54849;SDS011;47660;51.334;12.396;2023-04-08T12:15:03;14.48;;;6.30;;
54849;SDS011;47660;51.334;12.396;2023-04-08T12:17:29;14.07;;;6.57;;
54849;SDS011;47660;51.334;12.396;2023-04-08T12:19:57;14.68;;;6.75;;
54849;SDS011;47660;51.334;12.396;2023-04-08T12:22:23;15.05;;;6.45;;
54849;SDS011;47660;51.334;12.396;2023-04-08T12:24:51;13.30;;;6.28;;
54849;SDS011;47660;51.334;12.396;2023-04-08T12:27:17;16.83;;;6.93;;
54849;SDS011;47660;51.334;12.396;2023-04-08T12:29:42;9.77;;;5.18;;
54849;SDS011;47660;51.334;12.396;2023-04-08T12:32:08;11.75;;;6.05;;
54849;SDS011;47660;51.334;12.396;2023-04-08T12:34:34;14.23;;;6.28;;
54849;SDS011;47660;51.334;12.396;2023-04-08T12:36:59;13.63;;;6.47;;
54849;SDS011;47660;51.334;12.396;2023-04-08T12:39:25;14.63;;;6.07;;
54849;SDS011;47660;51.334;12.396;2023-04-08T12:41:53;13.07;;;6.57;;
54849;SDS011;47660;51.334;12.396;2023-04-08T12:44:22;11.50;;;5.28;;
54849;SDS011;47660;51.334;12.396;2023-04-08T12:46:47;13.45;;;5.82;;
54849;SDS011;47660;51.334;12.396;2023-04-08T12:49:13;9.48;;;4.97;;
54849;SDS011;47660;51.334;12.396;2023-04-08T12:51:38;13.18;;;5.95;;
54849;SDS011;47660;51.334;12.396;2023-04-08T12:54:04;14.23;;;6.20;;
54849;SDS011;47660;51.334;12.396;2023-04-08T12:56:30;11.93;;;5.18;;
54849;SDS011;47660;51.334;12.396;2023-04-08T12:58:57;10.75;;;5.25;;
54849;SDS011;47660;51.334;12.396;2023-04-08T13:01:26;16.55;;;6.10;;
54849;SDS011;47660;51.334;12.396;2023-04-08T13:03:52;11.77;;;5.50;;
54849;SDS011;47660;51.334;12.396;2023-04-08T13:06:20;12.98;;;5.75;;
54849;SDS011;47660;51.334;12.396;2023-04-08T13:08:46;14.90;;;6.32;;
54849;SDS011;47660;51.334;12.396;2023-04-08T13:11:14;13.40;;;5.47;;
54849;SDS011;47660;51.334;12.396;2023-04-08T13:13:39;13.85;;;5.88;;
54849;SDS011;47660;51.334;12.396;2023-04-08T13:16:05;12.30;;;5.85;;
54849;SDS011;47660;51.334;12.396;2023-04-08T13:18:31;13.30;;;6.22;;
54849;SDS011;47660;51.334;12.396;2023-04-08T13:20:57;14.27;;;5.63;;
54849;SDS011;47660;51.334;12.396;2023-04-08T13:23:22;9.95;;;5.13;;
54849;SDS011;47660;51.334;12.396;2023-04-08T13:25:48;12.77;;;6.00;;
54849;SDS011;47660;51.334;12.396;2023-04-08T13:28:13;12.80;;;5.93;;
54849;SDS011;47660;51.334;12.396;2023-04-08T13:30:39;10.75;;;5.15;;
54849;SDS011;47660;51.334;12.396;2023-04-08T13:33:08;13.80;;;6.43;;
54849;SDS011;47660;51.334;12.396;2023-04-08T13:35:36;12.95;;;6.03;;
54849;SDS011;47660;51.334;12.396;2023-04-08T13:38:04;10.88;;;5.30;;
54849;SDS011;47660;51.334;12.396;2023-04-08T13:40:30;10.15;;;4.82;;
54849;SDS011;47660;51.334;12.396;2023-04-08T13:42:55;8.82;;;5.18;;
54849;SDS011;47660;51.334;12.396;2023-04-08T13:45:21;10.70;;;4.97;;
54849;SDS011;47660;51.334;12.396;2023-04-08T13:47:49;9.88;;;5.15;;
54849;SDS011;47660;51.334;12.396;2023-04-08T13:50:15;10.48;;;5.22;;
54849;SDS011;47660;51.334;12.396;2023-04-08T13:52:41;13.35;;;5.65;;
54849;SDS011;47660;51.334;12.396;2023-04-08T13:55:07;12.90;;;6.13;;
54849;SDS011;47660;51.334;12.396;2023-04-08T13:57:33;14.60;;;6.13;;
54849;SDS011;47660;51.334;12.396;2023-04-08T14:00:01;13.45;;;6.32;;
54849;SDS011;47660;51.334;12.396;2023-04-08T14:02:28;13.43;;;6.18;;
54849;SDS011;47660;51.334;12.396;2023-04-08T14:04:55;11.70;;;5.63;;
54849;SDS011;47660;51.334;12.396;2023-04-08T14:07:21;11.95;;;5.68;;
54849;SDS011;47660;51.334;12.396;2023-04-08T14:09:47;8.90;;;4.82;;
54849;SDS011;47660;51.334;12.396;2023-04-08T14:12:17;11.15;;;4.85;;
54849;SDS011;47660;51.334;12.396;2023-04-08T14:14:45;7.95;;;4.25;;
54849;SDS011;47660;51.334;12.396;2023-04-08T14:17:13;11.68;;;5.78;;
54849;SDS011;47660;51.334;12.396;2023-04-08T14:19:39;10.95;;;5.00;;
54849;SDS011;47660;51.334;12.396;2023-04-08T14:22:04;14.30;;;5.50;;
54849;SDS011;47660;51.334;12.396;2023-04-08T14:24:34;11.38;;;5.32;;
54849;SDS011;47660;51.334;12.396;2023-04-08T14:26:59;10.45;;;5.57;;
54849;SDS011;47660;51.334;12.396;2023-04-08T14:29:25;12.43;;;5.85;;
54849;SDS011;47660;51.334;12.396;2023-04-08T14:31:57;10.73;;;4.97;;
54849;SDS011;47660;51.334;12.396;2023-04-08T14:34:25;11.43;;;5.43;;
54849;SDS011;47660;51.334;12.396;2023-04-08T14:36:53;11.95;;;5.10;;
54849;SDS011;47660;51.334;12.396;2023-04-08T14:39:19;11.18;;;4.40;;
54849;SDS011;47660;51.334;12.396;2023-04-08T14:41:46;11.52;;;4.97;;
54849;SDS011;47660;51.334;12.396;2023-04-08T14:44:32;11.93;;;5.53;;
54849;SDS011;47660;51.334;12.396;2023-04-08T14:46:58;11.85;;;5.35;;
54849;SDS011;47660;51.334;12.396;2023-04-08T14:49:24;10.02;;;4.60;;
54849;SDS011;47660;51.334;12.396;2023-04-08T14:51:49;10.82;;;4.85;;
54849;SDS011;47660;51.334;12.396;2023-04-08T14:54:15;13.40;;;5.32;;
54849;SDS011;47660;51.334;12.396;2023-04-08T14:56:42;9.50;;;5.22;;